sensor_id;sensor_type;location;lat;lon;timestamp;pressure;altitude;pressure_sealevel;temperature;humidity
6829;BME280;17930;48.592;8.868;2023-04-16T00:00:59;96668.31;;;7.43;100.00
6829;BME280;17930;48.592;8.868;2023-04-16T00:03:25;96667.78;;;7.41;100.00
6829;BME280;17930;48.592;8.868;2023-04-16T00:05:53;96669.84;;;7.39;100.00
6829;BME280;17930;48.592;8.868;2023-04-16T00:08:21;96671.72;;;7.49;100.00
6829;BME280;17930;48.592;8.868;2023-04-16T00:10:50;96666.25;;;7.45;100.00
6829;BME280;17930;48.592;8.868;2023-04-16T00:13:16;96663.91;;;7.44;100.00
6829;BME280;17930;48.592;8.868;2023-04-16T00:15:43;96670.09;;;7.43;100.00
6829;BME280;17930;48.592;8.868;2023-04-16T00:18:10;96670.91;;;7.43;100.00
6829;BME280;17930;48.592;8.868;2023-04-16T00:20:36;96675.56;;;7.41;100.00
6829;BME280;17930;48.592;8.868;2023-04-16T00:23:04;96667.81;;;7.46;100.00
6829;BME280;17930;48.592;8.868;2023-04-16T00:25:31;96671.44;;;7.45;100.00
6829;BME280;17930;48.592;8.868;2023-04-16T00:27:57;96669.84;;;7.44;100.00
6829;BME280;17930;48.592;8.868;2023-04-16T00:30:24;96666.78;;;7.52;100.00
6829;BME280;17930;48.592;8.868;2023-04-16T00:32:51;96669.84;;;7.44;100.00
6829;BME280;17930;48.592;8.868;2023-04-16T00:35:17;96672.72;;;7.43;100.00
6829;BME280;17930;48.592;8.868;2023-04-16T00:37:44;96672.47;;;7.49;100.00
6829;BME280;17930;48.592;8.868;2023-04-16T00:40:13;96672.19;;;7.46;100.00
6829;BME280;17930;48.592;8.868;2023-04-16T00:42:39;96672.44;;;7.44;100.00
6829;BME280;17930;48.592;8.868;2023-04-16T00:45:07;96669.34;;;7.42;100.00
6829;BME280;17930;48.592;8.868;2023-04-16T00:47:34;96670.91;;;7.43;100.00
6829;BME280;17930;48.592;8.868;2023-04-16T00:50:02;96675.09;;;7.54;100.00
6829;BME280;17930;48.592;8.868;2023-04-16T00:52:29;96678.44;;;7.50;100.00
6829;BME280;17930;48.592;8.868;2023-04-16T00:54:57;96672.47;;;7.49;100.00
6829;BME280;17930;48.592;8.868;2023-04-16T00:57:25;96683.63;;;7.45;100.00
6829;BME280;17930;48.592;8.868;2023-04-16T00:59:53;96676.09;;;7.48;100.00
6829;BME280;17930;48.592;8.868;2023-04-16T01:02:19;96678.97;;;7.47;100.00
6829;BME280;17930;48.592;8.868;2023-04-16T01:04:46;96684.44;;;7.50;100.00
6829;BME280;17930;48.592;8.868;2023-04-16T01:07:13;96681.53;;;7.47;100.00
6829;BME280;17930;48.592;8.868;2023-04-16T01:09:40;96678.69;;;7.43;100.00
6829;BME280;17930;48.592;8.868;2023-04-16T01:12:06;96674.78;;;7.46;100.00
6829;BME280;17930;48.592;8.868;2023-04-16T01:14:34;96678.94;;;7.42;100.00
6829;BME280;17930;48.592;8.868;2023-04-16T01:17:01;96677.13;;;7.42;100.00
6829;BME280;17930;48.592;8.868;2023-04-16T01:19:28;96681.25;;;7.38;100.00
6829;BME280;17930;48.592;8.868;2023-04-16T01:21:57;96690.09;;;7.37;100.00
6829;BME280;17930;48.592;8.868;2023-04-16T01:24:24;96686.94;;;7.35;100.00
6829;BME280;17930;48.592;8.868;2023-04-16T01:26:51;96685.66;;;7.38;100.00
6829;BME280;17930;48.592;8.868;2023-04-16T01:29:17;96678.66;;;7.38;100.00
6829;BME280;17930;48.592;8.868;2023-04-16T01:31:44;96681.28;;;7.43;100.00
6829;BME280;17930;48.592;8.868;2023-04-16T01:34:11;96686.44;;;7.38;100.00
6829;BME280;17930;48.592;8.868;2023-04-16T01:36:38;96676.63;;;7.45;100.00
6829;BME280;17930;48.592;8.868;2023-04-16T01:39:06;96682.31;;;7.42;100.00
6829;BME280;17930;48.592;8.868;2023-04-16T01:41:35;96682.81;;;7.39;100.00
6829;BME280;17930;48.592;8.868;2023-04-16T01:44:02;96689.56;;;7.40;100.00
6829;BME280;17930;48.592;8.868;2023-04-16T01:46:31;96689.56;;;7.40;100.00
6829;BME280;17930;48.592;8.868;2023-04-16T01:48:58;96688.00;;;7.39;100.00
6829;BME280;17930;48.592;8.868;2023-04-16T01:51:25;96684.94;;;7.47;100.00
6829;BME280;17930;48.592;8.868;2023-04-16T01:53:52;96682.81;;;7.44;100.00
6829;BME280;17930;48.592;8.868;2023-04-16T01:56:20;96687.53;;;7.47;100.00
6829;BME280;17930;48.592;8.868;2023-04-16T01:58:48;96690.13;;;7.47;100.00
6829;BME280;17930;48.592;8.868;2023-04-16T02:01:15;96686.44;;;7.38;100.00
6829;BME280;17930;48.592;8.868;2023-04-16T02:03:42;96692.19;;;7.40;100.00
6829;BME280;17930;48.592;8.868;2023-04-16T02:06:09;96686.44;;;7.38;100.00
6829;BME280;17930;48.592;8.868;2023-04-16T02:08:35;96688.78;;;7.40;100.00
6829;BME280;17930;48.592;8.868;2023-04-16T02:11:02;96686.69;;;7.37;100.00
6829;BME280;17930;48.592;8.868;2023-04-16T02:13:30;96691.13;;;7.36;100.00
6829;BME280;17930;48.592;8.868;2023-04-16T02:15:58;96687.97;;;7.34;100.00
6829;BME280;17930;48.592;8.868;2023-04-16T02:18:25;96692.19;;;7.45;100.00
6829;BME280;17930;48.592;8.868;2023-04-16T02:20:51;96689.53;;;7.35;100.00
6829;BME280;17930;48.592;8.868;2023-04-16T02:23:18;96694.78;;;7.40;100.00
6829;BME280;17930;48.592;8.868;2023-04-16T02:25:45;96691.13;;;7.41;100.00
6829;BME280;17930;48.592;8.868;2023-04-16T02:28:14;96696.31;;;7.41;100.00
6829;BME280;17930;48.592;8.868;2023-04-16T02:30:42;96701.50;;;7.41;100.00
6829;BME280;17930;48.592;8.868;2023-04-16T02:33:10;96696.06;;;7.43;100.00
6829;BME280;17930;48.592;8.868;2023-04-16T02:35:38;96697.88;;;7.42;100.00
6829;BME280;17930;48.592;8.868;2023-04-16T02:38:05;96698.66;;;7.43;100.00
6829;BME280;17930;48.592;8.868;2023-04-16T02:40:32;96694.47;;;7.37;100.00
6829;BME280;17930;48.592;8.868;2023-04-16T02:42:59;96696.56;;;7.40;100.00
6829;BME280;17930;48.592;8.868;2023-04-16T02:45:26;96698.13;;;7.41;100.00
6829;BME280;17930;48.592;8.868;2023-04-16T02:47:54;96695.75;;;7.34;100.00
6829;BME280;17930;48.592;8.868;2023-04-16T02:50:20;96700.94;;;7.34;100.00
6829;BME280;17930;48.592;8.868;2023-04-16T02:52:47;96703.03;;;7.32;100.00
6829;BME280;17930;48.592;8.868;2023-04-16T02:55:14;96699.91;;;7.30;100.00
6829;BME280;17930;48.592;8.868;2023-04-16T02:57:40;96699.34;;;7.28;100.00
6829;BME280;17930;48.592;8.868;2023-04-16T03:00:08;96701.44;;;7.31;100.00
6829;BME280;17930;48.592;8.868;2023-04-16T03:02:35;96700.44;;;7.32;100.00
6829;BME280;17930;48.592;8.868;2023-04-16T03:05:06;96696.25;;;7.31;100.00
6829;BME280;17930;48.592;8.868;2023-04-16T03:07:32;96704.28;;;7.30;100.00
6829;BME280;17930;48.592;8.868;2023-04-16T03:09:59;96706.94;;;7.35;100.00
6829;BME280;17930;48.592;8.868;2023-04-16T03:12:26;96700.44;;;7.32;100.00
6829;BME280;17930;48.592;8.868;2023-04-16T03:14:52;96703.78;;;7.33;100.00
6829;BME280;17930;48.592;8.868;2023-04-16T03:17:19;96704.34;;;7.35;100.00
6829;BME280;17930;48.592;8.868;2023-04-16T03:19:46;96702.50;;;7.35;100.00
6829;BME280;17930;48.592;8.868;2023-04-16T03:22:14;96705.66;;;7.37;100.00
6829;BME280;17930;48.592;8.868;2023-04-16T03:24:40;96708.75;;;7.39;100.00
6829;BME280;17930;48.592;8.868;2023-04-16T03:27:07;96702.50;;;7.35;100.00
6829;BME280;17930;48.592;8.868;2023-04-16T03:29:35;96705.34;;;7.34;100.00
6829;BME280;17930;48.592;8.868;2023-04-16T03:32:02;96710.84;;;7.37;100.00
6829;BME280;17930;48.592;8.868;2023-04-16T03:34:28;96711.56;;;7.33;100.00
6829;BME280;17930;48.592;8.868;2023-04-16T03:36:55;96707.44;;;7.32;100.00
6829;BME280;17930;48.592;8.868;2023-04-16T03:39:23;96711.81;;;7.31;100.00
6829;BME280;17930;48.592;8.868;2023-04-16T03:41:49;96705.66;;;7.37;100.00
6829;BME280;17930;48.592;8.868;2023-04-16T03:44:16;96717.06;;;7.41;100.00
6829;BME280;17930;48.592;8.868;2023-04-16T03:46:43;96715.53;;;7.40;100.00
6829;BME280;17930;48.592;8.868;2023-04-16T03:49:09;96717.88;;;7.42;100.00
6829;BME280;17930;48.592;8.868;2023-04-16T03:51:36;96722.25;;;7.41;100.00
6829;BME280;17930;48.592;8.868;2023-04-16T03:54:03;96715.53;;;7.40;100.00
6829;BME280;17930;48.592;8.868;2023-04-16T03:56:31;96710.81;;;7.32;100.00
6829;BME280;17930;48.592;8.868;2023-04-16T03:58:57;96722.75;;;7.33;100.00
6829;BME280;17930;48.592;8.868;2023-04-16T04:01:24;96723.06;;;7.42;100.00
6829;BME280;17930;48.592;8.868;2023-04-16T04:03:50;96718.88;;;7.41;100.00
6829;BME280;17930;48.592;8.868;2023-04-16T04:06:17;96727.19;;;7.38;100.00
6829;BME280;17930;48.592;8.868;2023-04-16T04:08:43;96716.50;;;7.34;100.00
6829;BME280;17930;48.592;8.868;2023-04-16T04:11:10;96721.72;;;7.39;100.00
6829;BME280;17930;48.592;8.868;2023-04-16T04:13:38;96723.81;;;7.42;100.00
6829;BME280;17930;48.592;8.868;2023-04-16T04:16:05;96724.31;;;7.39;100.00
6829;BME280;17930;48.592;8.868;2023-04-16T04:18:32;96731.84;;;7.41;100.00
6829;BME280;17930;48.592;8.868;2023-04-16T04:20:58;96728.44;;;7.35;100.00
6829;BME280;17930;48.592;8.868;2023-04-16T04:23:25;96732.06;;;7.34;100.00
6829;BME280;17930;48.592;8.868;2023-04-16T04:25:51;96728.50;;;7.40;100.00
6829;BME280;17930;48.592;8.868;2023-04-16T04:28:18;96720.41;;;7.32;100.00
6829;BME280;17930;48.592;8.868;2023-04-16T04:30:46;96723.25;;;7.35;100.00
6829;BME280;17930;48.592;8.868;2023-04-16T04:33:12;96733.13;;;7.38;100.00
6829;BME280;17930;48.592;8.868;2023-04-16T04:35:39;96738.31;;;7.38;100.00
6829;BME280;17930;48.592;8.868;2023-04-16T04:38:05;96735.47;;;7.40;100.00
6829;BME280;17930;48.592;8.868;2023-04-16T04:40:32;96732.88;;;7.35;100.00
6829;BME280;17930;48.592;8.868;2023-04-16T04:42:59;96739.38;;;7.42;100.00
6829;BME280;17930;48.592;8.868;2023-04-16T04:45:25;96745.59;;;7.36;100.00
6829;BME280;17930;48.592;8.868;2023-04-16T04:47:53;96740.34;;;7.31;100.00
6829;BME280;17930;48.592;8.868;2023-04-16T04:50:20;96756.72;;;7.37;100.00
6829;BME280;17930;48.592;8.868;2023-04-16T04:52:47;96751.28;;;7.38;100.00
6829;BME280;17930;48.592;8.868;2023-04-16T04:55:13;96757.28;;;7.44;100.00
6829;BME280;17930;48.592;8.868;2023-04-16T04:57:40;96759.38;;;7.47;100.00
6829;BME280;17930;48.592;8.868;2023-04-16T05:00:07;96765.84;;;7.44;100.00
6829;BME280;17930;48.592;8.868;2023-04-16T05:02:34;96767.91;;;7.37;100.00
6829;BME280;17930;48.592;8.868;2023-04-16T05:05:02;96770.00;;;7.40;100.00
6829;BME280;17930;48.592;8.868;2023-04-16T05:07:29;96772.34;;;7.42;100.00
6829;BME280;17930;48.592;8.868;2023-04-16T05:09:56;96780.38;;;7.45;100.00
6829;BME280;17930;48.592;8.868;2023-04-16T05:12:22;96783.75;;;7.41;100.00
6829;BME280;17930;48.592;8.868;2023-04-16T05:14:49;96788.13;;;7.35;100.00
6829;BME280;17930;48.592;8.868;2023-04-16T05:17:15;96791.22;;;7.32;100.00
6829;BME280;17930;48.592;8.868;2023-04-16T05:19:42;96786.59;;;7.39;100.00
6829;BME280;17930;48.592;8.868;2023-04-16T05:22:10;96788.66;;;7.37;100.00
6829;BME280;17930;48.592;8.868;2023-04-16T05:24:36;96794.88;;;7.36;100.00
6829;BME280;17930;48.592;8.868;2023-04-16T05:27:03;96801.84;;;7.36;100.00
6829;BME280;17930;48.592;8.868;2023-04-16T05:29:30;96804.22;;;7.37;100.00
6829;BME280;17930;48.592;8.868;2023-04-16T05:31:56;96800.59;;;7.38;100.00
6829;BME280;17930;48.592;8.868;2023-04-16T05:34:23;96797.97;;;7.33;100.00
6829;BME280;17930;48.592;8.868;2023-04-16T05:36:49;96799.03;;;7.37;100.00
6829;BME280;17930;48.592;8.868;2023-04-16T05:39:17;96803.44;;;7.37;100.00
6829;BME280;17930;48.592;8.868;2023-04-16T05:41:44;96805.28;;;7.41;100.00
6829;BME280;17930;48.592;8.868;2023-04-16T05:44:11;96809.69;;;7.41;100.00
6829;BME280;17930;48.592;8.868;2023-04-16T05:46:38;96816.66;;;7.35;100.00
6829;BME280;17930;48.592;8.868;2023-04-16T05:49:04;96823.47;;;7.46;100.00
6829;BME280;17930;48.592;8.868;2023-04-16T05:51:31;96821.13;;;7.45;100.00
6829;BME280;17930;48.592;8.868;2023-04-16T05:53:57;96818.28;;;7.46;100.00
6829;BME280;17930;48.592;8.868;2023-04-16T05:56:25;96824.00;;;7.48;100.00
6829;BME280;17930;48.592;8.868;2023-04-16T05:58:52;96823.19;;;7.43;100.00
6829;BME280;17930;48.592;8.868;2023-04-16T06:01:18;96827.59;;;7.42;100.00
6829;BME280;17930;48.592;8.868;2023-04-16T06:03:45;96832.44;;;7.29;100.00
6829;BME280;17930;48.592;8.868;2023-04-16T06:06:12;96840.50;;;7.32;100.00
6829;BME280;17930;48.592;8.868;2023-04-16T06:08:38;96832.28;;;7.45;100.00
6829;BME280;17930;48.592;8.868;2023-04-16T06:11:05;96837.97;;;7.42;100.00
6829;BME280;17930;48.592;8.868;2023-04-16T06:13:33;96840.00;;;7.35;100.00
6829;BME280;17930;48.592;8.868;2023-04-16T06:15:59;96841.06;;;7.39;100.00
6829;BME280;17930;48.592;8.868;2023-04-16T06:18:26;96835.56;;;7.31;100.00
6829;BME280;17930;48.592;8.868;2023-04-16T06:20:53;96836.63;;;7.35;100.00
6829;BME280;17930;48.592;8.868;2023-04-16T06:23:19;96836.63;;;7.35;100.00
6829;BME280;17930;48.592;8.868;2023-04-16T06:25:46;96845.75;;;7.37;100.00
6829;BME280;17930;48.592;8.868;2023-04-16T06:28:12;96841.25;;;7.33;100.00
6829;BME280;17930;48.592;8.868;2023-04-16T06:30:41;96842.00;;;7.28;100.00
6829;BME280;17930;48.592;8.868;2023-04-16T06:33:07;96843.59;;;7.29;100.00
6829;BME280;17930;48.592;8.868;2023-04-16T06:35:34;96851.41;;;7.34;100.00
6829;BME280;17930;48.592;8.868;2023-04-16T06:38:01;96846.22;;;7.34;100.00
6829;BME280;17930;48.592;8.868;2023-04-16T06:40:27;96852.41;;;7.28;100.00
6829;BME280;17930;48.592;8.868;2023-04-16T06:42:54;96856.03;;;7.27;100.00
6829;BME280;17930;48.592;8.868;2023-04-16T06:45:21;96853.91;;;7.24;100.00
6829;BME280;17930;48.592;8.868;2023-04-16T06:47:49;96856.03;;;7.27;100.00
6829;BME280;17930;48.592;8.868;2023-04-16T06:50:16;96852.38;;;7.23;100.00
6829;BME280;17930;48.592;8.868;2023-04-16T06:52:43;96853.38;;;7.22;100.00
6829;BME280;17930;48.592;8.868;2023-04-16T06:55:10;96853.38;;;7.22;100.00
6829;BME280;17930;48.592;8.868;2023-04-16T06:57:37;96863.25;;;7.25;100.00
6829;BME280;17930;48.592;8.868;2023-04-16T07:00:06;96869.56;;;7.34;100.00
6829;BME280;17930;48.592;8.868;2023-04-16T07:02:32;96872.41;;;7.33;100.00
6829;BME280;17930;48.592;8.868;2023-04-16T07:05:01;96868.75;;;7.29;100.00
6829;BME280;17930;48.592;8.868;2023-04-16T07:07:27;96876.81;;;7.32;100.00
6829;BME280;17930;48.592;8.868;2023-04-16T07:09:54;96872.31;;;7.23;100.00
6829;BME280;17930;48.592;8.868;2023-04-16T07:12:20;96870.53;;;7.23;100.00
6829;BME280;17930;48.592;8.868;2023-04-16T07:14:47;96871.69;;;7.37;100.00
6829;BME280;17930;48.592;8.868;2023-04-16T07:17:14;96871.69;;;7.37;100.00
6829;BME280;17930;48.592;8.868;2023-04-16T07:19:40;96870.13;;;7.41;100.00
6829;BME280;17930;48.592;8.868;2023-04-16T07:22:08;96867.53;;;7.41;100.00
6829;BME280;17930;48.592;8.868;2023-04-16T07:24:35;96880.81;;;7.45;100.00
6829;BME280;17930;48.592;8.868;2023-04-16T07:27:01;96869.94;;;7.53;100.00
6829;BME280;17930;48.592;8.868;2023-04-16T07:29:28;96880.63;;;7.56;100.00
6829;BME280;17930;48.592;8.868;2023-04-16T07:31:55;96878.09;;;7.66;100.00
6829;BME280;17930;48.592;8.868;2023-04-16T07:34:22;96876.31;;;7.71;100.00
6829;BME280;17930;48.592;8.868;2023-04-16T07:36:49;96875.09;;;7.84;100.00
6829;BME280;17930;48.592;8.868;2023-04-16T07:39:17;96883.38;;;7.81;100.00
6829;BME280;17930;48.592;8.868;2023-04-16T07:41:43;96881.31;;;7.83;100.00
6829;BME280;17930;48.592;8.868;2023-04-16T07:44:11;96885.50;;;7.89;100.00
6829;BME280;17930;48.592;8.868;2023-04-16T07:46:38;96886.53;;;7.83;100.00
6829;BME280;17930;48.592;8.868;2023-04-16T07:49:04;96892.22;;;7.85;100.00
6829;BME280;17930;48.592;8.868;2023-04-16T07:51:31;96885.19;;;7.75;100.00
6829;BME280;17930;48.592;8.868;2023-04-16T07:53:57;96890.13;;;7.82;100.00
6829;BME280;17930;48.592;8.868;2023-04-16T07:56:26;96885.47;;;7.84;100.00
6829;BME280;17930;48.592;8.868;2023-04-16T07:58:52;96894.38;;;7.93;100.00
6829;BME280;17930;48.592;8.868;2023-04-16T08:01:20;96891.47;;;7.89;100.00
6829;BME280;17930;48.592;8.868;2023-04-16T08:03:46;96902.66;;;7.90;100.00
6829;BME280;17930;48.592;8.868;2023-04-16T08:06:13;96898.50;;;7.89;100.00
6829;BME280;17930;48.592;8.868;2023-04-16T08:08:40;96896.84;;;7.78;100.00
6829;BME280;17930;48.592;8.868;2023-04-16T08:11:07;96906.75;;;7.81;100.00
6829;BME280;17930;48.592;8.868;2023-04-16T08:13:35;96909.88;;;7.83;100.00
6829;BME280;17930;48.592;8.868;2023-04-16T08:16:02;96913.75;;;7.80;100.00
6829;BME280;17930;48.592;8.868;2023-04-16T08:18:28;96912.97;;;7.80;100.00
6829;BME280;17930;48.592;8.868;2023-04-16T08:20:55;96913.25;;;7.83;100.00
6829;BME280;17930;48.592;8.868;2023-04-16T08:23:21;96922.03;;;7.77;100.00
6829;BME280;17930;48.592;8.868;2023-04-16T08:25:48;96926.47;;;7.77;100.00
6829;BME280;17930;48.592;8.868;2023-04-16T08:28:15;96927.50;;;7.81;100.00
6829;BME280;17930;48.592;8.868;2023-04-16T08:30:43;96930.09;;;7.76;100.00
6829;BME280;17930;48.592;8.868;2023-04-16T08:33:10;96939.97;;;7.79;100.00
6829;BME280;17930;48.592;8.868;2023-04-16T08:35:38;96937.66;;;7.82;100.00
6829;BME280;17930;48.592;8.868;2023-04-16T08:38:05;96940.00;;;7.84;100.00
6829;BME280;17930;48.592;8.868;2023-04-16T08:40:34;96940.00;;;7.84;100.00
6829;BME280;17930;48.592;8.868;2023-04-16T08:43:05;96938.00;;;7.96;100.00
6829;BME280;17930;48.592;8.868;2023-04-16T08:45:35;96940.28;;;7.87;100.00
6829;BME280;17930;48.592;8.868;2023-04-16T08:48:04;96941.13;;;7.98;100.00
6829;BME280;17930;48.592;8.868;2023-04-16T08:50:32;96945.88;;;8.11;100.00
6829;BME280;17930;48.592;8.868;2023-04-16T08:53:03;96949.16;;;7.96;100.00
6829;BME280;17930;48.592;8.868;2023-04-16T08:55:33;96942.25;;;8.07;100.00
6829;BME280;17930;48.592;8.868;2023-04-16T08:58:04;96953.16;;;8.09;100.00
6829;BME280;17930;48.592;8.868;2023-04-16T09:00:33;96950.69;;;8.28;100.00
6829;BME280;17930;48.592;8.868;2023-04-16T09:03:01;96952.09;;;8.46;100.00
6829;BME280;17930;48.592;8.868;2023-04-16T09:05:29;96955.47;;;8.46;100.00
6829;BME280;17930;48.592;8.868;2023-04-16T09:07:57;96958.34;;;8.45;100.00
6829;BME280;17930;48.592;8.868;2023-04-16T09:10:24;96951.38;;;8.60;100.00
6829;BME280;17930;48.592;8.868;2023-04-16T09:12:54;96959.41;;;8.54;100.00
6829;BME280;17930;48.592;8.868;2023-04-16T09:15:21;96956.34;;;8.67;100.00
6829;BME280;17930;48.592;8.868;2023-04-16T09:17:48;96947.03;;;8.80;100.00
6829;BME280;17930;48.592;8.868;2023-04-16T09:20:15;96948.31;;;8.78;100.00
6829;BME280;17930;48.592;8.868;2023-04-16T09:22:43;96951.44;;;8.75;100.00
6829;BME280;17930;48.592;8.868;2023-04-16T09:25:10;96946.38;;;9.19;100.00
6829;BME280;17930;48.592;8.868;2023-04-16T09:27:38;96950.28;;;9.32;100.00
6829;BME280;17930;48.592;8.868;2023-04-16T09:30:18;96956.28;;;9.32;100.00
6829;BME280;17930;48.592;8.868;2023-04-16T09:32:47;96955.22;;;9.18;100.00
6829;BME280;17930;48.592;8.868;2023-04-16T09:35:14;96961.91;;;8.90;100.00
6829;BME280;17930;48.592;8.868;2023-04-16T09:37:41;96960.91;;;9.06;100.00
6829;BME280;17930;48.592;8.868;2023-04-16T09:40:09;96968.72;;;9.20;100.00
6829;BME280;17930;48.592;8.868;2023-04-16T09:42:36;96965.63;;;9.28;100.00
6829;BME280;17930;48.592;8.868;2023-04-16T09:45:03;96975.47;;;9.07;100.00
6829;BME280;17930;48.592;8.868;2023-04-16T09:47:41;96969.75;;;9.15;100.00
6829;BME280;17930;48.592;8.868;2023-04-16T09:50:13;96973.94;;;9.20;100.00
6829;BME280;17930;48.592;8.868;2023-04-16T09:52:42;96967.97;;;9.25;100.00
6829;BME280;17930;48.592;8.868;2023-04-16T09:55:11;96973.47;;;9.38;100.00
6829;BME280;17930;48.592;8.868;2023-04-16T09:57:39;96982.28;;;9.22;100.00
6829;BME280;17930;48.592;8.868;2023-04-16T10:00:07;96986.69;;;9.22;100.00
6829;BME280;17930;48.592;8.868;2023-04-16T10:02:35;96982.03;;;9.29;100.00
6829;BME280;17930;48.592;8.868;2023-04-16T10:05:03;96987.97;;;9.10;100.00
6829;BME280;17930;48.592;8.868;2023-04-16T10:07:33;96983.25;;;9.07;100.00
6829;BME280;17930;48.592;8.868;2023-04-16T10:10:01;96973.34;;;8.94;100.00
6829;BME280;17930;48.592;8.868;2023-04-16T10:12:29;96993.47;;;9.28;100.00
6829;BME280;17930;48.592;8.868;2023-04-16T10:14:57;96985.16;;;9.36;100.00
6829;BME280;17930;48.592;8.868;2023-04-16T10:17:25;96989.59;;;9.40;100.00
6829;BME280;17930;48.592;8.868;2023-04-16T10:19:54;96998.91;;;9.12;100.00
6829;BME280;17930;48.592;8.868;2023-04-16T10:22:23;97008.53;;;9.11;100.00
6829;BME280;17930;48.592;8.868;2023-04-16T10:24:50;97006.69;;;9.07;100.00
6829;BME280;17930;48.592;8.868;2023-04-16T10:27:18;97009.25;;;8.97;100.00
6829;BME280;17930;48.592;8.868;2023-04-16T10:29:47;97009.72;;;8.79;100.00
6829;BME280;17930;48.592;8.868;2023-04-16T10:32:15;97011.91;;;8.56;100.00
6829;BME280;17930;48.592;8.868;2023-04-16T10:34:43;97010.69;;;8.68;100.00
6829;BME280;17930;48.592;8.868;2023-04-16T10:37:10;97011.28;;;8.85;100.00
6829;BME280;17930;48.592;8.868;2023-04-16T10:39:36;97013.94;;;8.90;100.00
6829;BME280;17930;48.592;8.868;2023-04-16T10:42:07;97008.91;;;8.73;100.00
6829;BME280;17930;48.592;8.868;2023-04-16T10:44:35;97016.50;;;8.85;100.00
6829;BME280;17930;48.592;8.868;2023-04-16T10:47:09;97007.50;;;9.22;100.00
6829;BME280;17930;48.592;8.868;2023-04-16T10:49:36;97008.53;;;9.11;100.00
6829;BME280;17930;48.592;8.868;2023-04-16T10:52:08;97011.75;;;9.38;100.00
6829;BME280;17930;48.592;8.868;2023-04-16T10:54:35;97005.44;;;9.24;100.00
6829;BME280;17930;48.592;8.868;2023-04-16T10:57:03;97005.66;;;9.03;100.00
6829;BME280;17930;48.592;8.868;2023-04-16T10:59:31;97004.13;;;9.21;100.00
6829;BME280;17930;48.592;8.868;2023-04-16T11:02:00;97004.34;;;9.00;100.00
6829;BME280;17930;48.592;8.868;2023-04-16T11:04:32;97012.09;;;8.90;100.00
6829;BME280;17930;48.592;8.868;2023-04-16T11:07:15;97019.91;;;8.90;100.00
6829;BME280;17930;48.592;8.868;2023-04-16T11:09:55;97021.84;;;8.68;100.00
6829;BME280;17930;48.592;8.868;2023-04-16T11:12:25;97013.28;;;8.63;100.00
6829;BME280;17930;48.592;8.868;2023-04-16T11:14:56;97017.47;;;8.69;100.00
6829;BME280;17930;48.592;8.868;2023-04-16T11:17:27;97017.22;;;8.70;100.00
6829;BME280;17930;48.592;8.868;2023-04-16T11:19:55;97015.16;;;8.77;100.00
6829;BME280;17930;48.592;8.868;2023-04-16T11:22:22;97023.28;;;8.91;100.00
6829;BME280;17930;48.592;8.868;2023-04-16T11:24:53;97021.22;;;8.98;100.00
6829;BME280;17930;48.592;8.868;2023-04-16T11:27:21;97018.63;;;8.93;100.00
6829;BME280;17930;48.592;8.868;2023-04-16T11:29:56;97021.22;;;8.93;100.00
6829;BME280;17930;48.592;8.868;2023-04-16T11:32:23;97017.81;;;8.87;100.00
6829;BME280;17930;48.592;8.868;2023-04-16T11:34:49;97016.50;;;8.85;100.00
6829;BME280;17930;48.592;8.868;2023-04-16T11:37:20;97024.50;;;8.73;100.00
6829;BME280;17930;48.592;8.868;2023-04-16T11:39:48;97027.91;;;8.79;100.00
6829;BME280;17930;48.592;8.868;2023-04-16T11:42:19;97022.19;;;8.82;100.00
6829;BME280;17930;48.592;8.868;2023-04-16T11:44:50;97024.53;;;8.83;100.00
6829;BME280;17930;48.592;8.868;2023-04-16T11:47:17;97025.91;;;9.01;100.00
6829;BME280;17930;48.592;8.868;2023-04-16T11:49:44;97014.78;;;9.10;100.00
6829;BME280;17930;48.592;8.868;2023-04-16T11:52:11;97017.19;;;9.41;100.00
6829;BME280;17930;48.592;8.868;2023-04-16T11:54:39;97018.75;;;9.37;100.00
6829;BME280;17930;48.592;8.868;2023-04-16T11:57:05;97021.81;;;9.15;100.00
6829;BME280;17930;48.592;8.868;2023-04-16T11:59:32;97020.53;;;9.22;100.00
6829;BME280;17930;48.592;8.868;2023-04-16T12:01:59;97027.75;;;9.05;100.00
6829;BME280;17930;48.592;8.868;2023-04-16T12:04:26;97031.91;;;9.01;100.00
6829;BME280;17930;48.592;8.868;2023-04-16T12:07:09;97032.13;;;8.95;100.00
6829;BME280;17930;48.592;8.868;2023-04-16T12:09:39;97034.25;;;9.03;100.00
6829;BME280;17930;48.592;8.868;2023-04-16T12:12:24;97031.72;;;9.27;100.00
6829;BME280;17930;48.592;8.868;2023-04-16T12:14:52;97024.75;;;9.43;100.00
6829;BME280;17930;48.592;8.868;2023-04-16T12:17:18;97034.09;;;9.39;100.00
6829;BME280;17930;48.592;8.868;2023-04-16T12:19:49;97032.84;;;9.51;100.00
6829;BME280;17930;48.592;8.868;2023-04-16T12:22:17;97030.25;;;9.66;100.00
6829;BME280;17930;48.592;8.868;2023-04-16T12:24:45;97035.44;;;9.66;100.00
6829;BME280;17930;48.592;8.868;2023-04-16T12:27:11;97031.84;;;9.82;100.00
6829;BME280;17930;48.592;8.868;2023-04-16T12:29:38;97035.44;;;9.66;100.00
6829;BME280;17930;48.592;8.868;2023-04-16T12:32:19;97042.16;;;9.37;100.00
6829;BME280;17930;48.592;8.868;2023-04-16T12:34:49;97050.81;;;9.53;100.00
6829;BME280;17930;48.592;8.868;2023-04-16T12:37:16;97034.97;;;9.79;100.00
6829;BME280;17930;48.592;8.868;2023-04-16T12:39:44;97040.41;;;9.63;100.00
6829;BME280;17930;48.592;8.868;2023-04-16T12:42:11;97043.97;;;9.32;100.00
6829;BME280;17930;48.592;8.868;2023-04-16T12:44:38;97053.53;;;9.17;100.00
6829;BME280;17930;48.592;8.868;2023-04-16T12:47:05;97044.25;;;9.35;100.00
6829;BME280;17930;48.592;8.868;2023-04-16T12:49:31;97048.66;;;9.30;100.00
6829;BME280;17930;48.592;8.868;2023-04-16T12:51:58;97052.56;;;9.27;100.00
6829;BME280;17930;48.592;8.868;2023-04-16T12:54:25;97057.16;;;9.11;100.00
6829;BME280;17930;48.592;8.868;2023-04-16T12:56:54;97051.22;;;9.20;100.00
6829;BME280;17930;48.592;8.868;2023-04-16T12:59:21;97047.53;;;9.01;100.00
6829;BME280;17930;48.592;8.868;2023-04-16T13:01:48;97048.84;;;9.09;100.00
6829;BME280;17930;48.592;8.868;2023-04-16T13:04:15;97056.66;;;9.09;100.00
6829;BME280;17930;48.592;8.868;2023-04-16T13:06:42;97052.47;;;9.08;100.00
6829;BME280;17930;48.592;8.868;2023-04-16T13:09:11;97049.03;;;8.92;100.00
6829;BME280;17930;48.592;8.868;2023-04-16T13:11:38;97048.25;;;8.97;100.00